createdAt,value
2018-10-16T00:00:28.206Z,11.40
2018-10-16T00:03:01.839Z,11.23
2018-10-16T00:05:37.717Z,11.83
2018-10-16T00:08:11.210Z,11.17
2018-10-16T00:10:51.135Z,11.43
2018-10-16T00:13:31.044Z,11.27
2018-10-16T00:16:04.620Z,11.63
2018-10-16T00:18:38.129Z,12.00
2018-10-16T00:21:11.589Z,10.87
2018-10-16T00:23:45.114Z,12.10
2018-10-16T00:26:18.664Z,11.87
2018-10-16T00:28:53.151Z,11.30
2018-10-16T00:31:26.661Z,12.13
2018-10-16T00:34:01.077Z,12.60
2018-10-16T00:36:35.618Z,12.07
2018-10-16T00:39:12.409Z,12.23
2018-10-16T00:41:51.837Z,11.20
2018-10-16T00:44:25.277Z,11.47
2018-10-16T00:46:58.914Z,12.03
2018-10-16T00:49:32.398Z,10.90
2018-10-16T00:52:06.085Z,11.80
2018-10-16T00:54:39.483Z,11.67
2018-10-16T00:57:12.997Z,11.40
2018-10-16T00:59:46.494Z,12.33
2018-10-16T01:02:26.500Z,12.33
2018-10-16T01:05:02.935Z,13.37
2018-10-16T01:07:36.344Z,12.17
2018-10-16T01:10:11.561Z,12.60
2018-10-16T01:12:45.057Z,11.93
2018-10-16T01:15:18.593Z,12.40
2018-10-16T01:17:51.978Z,11.80
2018-10-16T01:20:25.573Z,13.13
2018-10-16T01:22:58.940Z,12.50
2018-10-16T01:25:32.627Z,12.70
2018-10-16T01:28:06.240Z,13.07
2018-10-16T01:30:39.742Z,12.03
2018-10-16T01:33:13.330Z,12.70
2018-10-16T01:35:46.929Z,12.67
2018-10-16T01:38:20.365Z,12.77
2018-10-16T01:40:53.743Z,13.33
2018-10-16T01:43:29.237Z,12.33
2018-10-16T01:46:02.828Z,13.23
2018-10-16T01:48:36.649Z,12.57
2018-10-16T01:51:16.341Z,13.13
2018-10-16T01:53:49.780Z,14.07
2018-10-16T01:56:23.083Z,14.80
2018-10-16T01:58:56.490Z,14.13
2018-10-16T02:01:31.988Z,14.57
2018-10-16T02:04:05.623Z,13.63
2018-10-16T02:06:39.102Z,14.20
2018-10-16T02:09:12.629Z,15.37
2018-10-16T02:11:47.133Z,15.07
2018-10-16T02:14:20.575Z,14.53
2018-10-16T02:16:57.256Z,16.37
2018-10-16T02:19:30.752Z,14.83
2018-10-16T02:22:05.453Z,15.63
2018-10-16T02:24:38.924Z,13.80
2018-10-16T02:27:12.520Z,15.40
2018-10-16T02:29:52.413Z,16.33
2018-10-16T02:32:25.879Z,16.37
2018-10-16T02:34:59.299Z,17.10
2018-10-16T02:37:33.750Z,17.10
2018-10-16T02:40:09.085Z,17.50
2018-10-16T02:42:42.531Z,18.57
2018-10-16T02:45:16.142Z,19.80
2018-10-16T02:47:50.662Z,20.43
2018-10-16T02:50:25.082Z,20.40
2018-10-16T02:52:58.835Z,18.27
2018-10-16T02:55:32.535Z,20.43
2018-10-16T02:58:06.156Z,20.47
2018-10-16T03:00:41.775Z,21.20
2018-10-16T03:03:15.436Z,24.00
2018-10-16T03:05:48.883Z,23.13
2018-10-16T03:08:23.459Z,23.20
2018-10-16T03:10:57.342Z,22.30
2018-10-16T03:13:30.767Z,21.27
2018-10-16T03:16:04.580Z,23.00
2018-10-16T03:18:38.187Z,21.67
2018-10-16T03:21:11.756Z,22.07
2018-10-16T03:23:51.789Z,22.67
2018-10-16T03:26:25.354Z,21.67
2018-10-16T03:28:58.896Z,21.80
2018-10-16T03:31:32.328Z,21.27
2018-10-16T03:34:06.057Z,21.13
2018-10-16T03:36:40.604Z,21.37
2018-10-16T03:39:20.388Z,21.00
2018-10-16T03:41:53.704Z,21.60
2018-10-16T03:44:27.189Z,21.33
2018-10-16T03:47:00.756Z,20.87
2018-10-16T03:49:34.282Z,20.37
2018-10-16T03:52:07.899Z,19.33
2018-10-16T03:54:41.326Z,21.70
2018-10-16T03:57:15.680Z,20.20
2018-10-16T03:59:55.907Z,20.93
2018-10-16T04:02:29.385Z,20.27
2018-10-16T04:05:03.171Z,21.67
2018-10-16T04:07:38.087Z,21.30
2018-10-16T04:10:11.598Z,21.20
2018-10-16T04:12:50.390Z,20.60
2018-10-16T04:15:23.917Z,20.83
2018-10-16T04:17:57.338Z,20.70
2018-10-16T04:20:30.771Z,20.73
2018-10-16T04:23:04.379Z,20.43
2018-10-16T04:25:44.139Z,19.57
2018-10-16T04:28:17.472Z,21.43
2018-10-16T04:30:50.808Z,20.27
2018-10-16T04:33:24.222Z,21.50
2018-10-16T04:35:57.850Z,20.73
2018-10-16T04:38:32.347Z,20.83
2018-10-16T04:41:05.837Z,19.30
2018-10-16T04:43:39.497Z,21.63
2018-10-16T04:46:13.013Z,21.20
2018-10-16T04:48:52.787Z,20.93
2018-10-16T04:51:27.144Z,21.20
2018-10-16T04:54:01.660Z,20.53
2018-10-16T04:56:36.053Z,21.00
2018-10-16T04:59:09.786Z,20.47
2018-10-16T05:01:44.265Z,20.03
2018-10-16T05:04:17.978Z,20.70
2018-10-16T05:06:51.523Z,20.17
2018-10-16T05:09:25.000Z,20.83
2018-10-16T05:11:58.627Z,21.07
2018-10-16T05:14:32.083Z,19.17
2018-10-16T05:17:05.644Z,20.63
2018-10-16T05:19:39.231Z,19.53
2018-10-16T05:22:19.045Z,21.27
2018-10-16T05:24:52.451Z,21.67
2018-10-16T05:27:32.417Z,21.20
2018-10-16T05:30:06.058Z,23.23
2018-10-16T05:32:39.694Z,24.60
2018-10-16T05:35:13.182Z,22.83
2018-10-16T05:37:46.708Z,21.30
2018-10-16T05:40:20.302Z,24.00
2018-10-16T05:42:53.701Z,24.37
2018-10-16T05:45:35.615Z,22.03
2018-10-16T05:48:09.116Z,22.83
2018-10-16T05:50:42.772Z,23.60
2018-10-16T05:53:16.288Z,23.30
2018-10-16T05:56:03.643Z,23.47
2018-10-16T05:58:37.147Z,22.43
2018-10-16T06:01:16.949Z,24.47
2018-10-16T06:03:50.499Z,21.97
2018-10-16T06:06:24.065Z,23.23
2018-10-16T06:08:58.853Z,22.87
2018-10-16T06:11:32.365Z,23.27
2018-10-16T06:14:12.361Z,23.10
2018-10-16T06:16:45.815Z,22.47
2018-10-16T06:19:19.406Z,24.07
2018-10-16T06:21:52.869Z,23.63
2018-10-16T06:24:26.505Z,23.27
2018-10-16T06:27:00.029Z,23.77
2018-10-16T06:29:39.956Z,23.17
2018-10-16T06:32:13.509Z,23.33
2018-10-16T06:34:46.978Z,23.83
2018-10-16T06:37:27.088Z,23.20
2018-10-16T06:40:00.525Z,24.07
2018-10-16T06:42:40.273Z,24.67
2018-10-16T06:45:13.858Z,24.97
2018-10-16T06:47:47.490Z,27.53
2018-10-16T06:50:27.301Z,28.37
2018-10-16T06:53:01.065Z,26.47
2018-10-16T06:55:35.554Z,26.47
2018-10-16T06:58:09.196Z,28.47
2018-10-16T07:00:42.746Z,30.07
2018-10-16T07:03:22.654Z,28.73
2018-10-16T07:06:02.521Z,28.57
2018-10-16T07:08:42.482Z,28.87
2018-10-16T07:11:22.273Z,29.10
2018-10-16T07:14:02.193Z,29.10
2018-10-16T07:16:42.040Z,28.50
2018-10-16T07:19:15.393Z,29.03
2018-10-16T07:21:53.140Z,29.83
2018-10-16T07:24:33.273Z,29.20
2018-10-16T07:27:13.197Z,26.03
2018-10-16T07:29:46.711Z,26.40
2018-10-16T07:32:20.285Z,25.57
2018-10-16T07:34:53.753Z,26.80
2018-10-16T07:37:27.321Z,26.50
2018-10-16T07:40:08.290Z,26.37
2018-10-16T07:42:43.326Z,24.80
2018-10-16T07:45:16.815Z,25.70
2018-10-16T07:47:50.332Z,26.40
2018-10-16T07:50:23.927Z,25.27
2018-10-16T07:53:03.618Z,25.03
2018-10-16T07:55:39.148Z,25.60
2018-10-16T07:58:12.649Z,25.17
2018-10-16T08:00:46.161Z,25.17
2018-10-16T08:03:25.529Z,25.17
2018-10-16T08:05:59.056Z,25.33
2018-10-16T08:08:32.604Z,26.13
2018-10-16T08:11:07.046Z,25.80
2018-10-16T08:13:40.608Z,25.70
2018-10-16T08:16:21.237Z,25.17
2018-10-16T08:18:54.645Z,24.57
2018-10-16T08:21:29.311Z,25.13
2018-10-16T08:24:09.490Z,25.37
2018-10-16T08:26:44.065Z,26.90
2018-10-16T08:29:17.570Z,27.20
2018-10-16T08:31:51.493Z,26.50
2018-10-16T08:34:25.052Z,25.23
2018-10-16T08:37:04.957Z,27.43
2018-10-16T08:39:41.116Z,25.75
2018-10-16T08:43:39.102Z,25.75
2018-10-16T08:46:26.901Z,26.00
2018-10-16T08:49:12.086Z,26.87
2018-10-16T08:51:55.813Z,27.30
2018-10-16T08:54:29.313Z,27.58
2018-10-16T08:57:09.121Z,26.07
2018-10-16T08:59:42.553Z,26.75
2018-10-16T09:02:22.601Z,26.52
2018-10-16T09:04:56.109Z,27.10
2018-10-16T09:14:32.376Z,25.57
2018-10-16T09:17:05.963Z,25.23
2018-10-16T09:19:45.805Z,26.00
2018-10-16T09:22:19.315Z,26.80
2018-10-16T09:24:52.808Z,27.45
2018-10-16T09:27:32.692Z,25.10
2018-10-16T09:30:13.345Z,25.82
2018-10-16T09:32:46.769Z,26.05
2018-10-16T09:35:20.205Z,27.00
2018-10-16T09:37:53.821Z,26.13
2018-10-16T09:40:27.324Z,26.17
2018-10-16T09:43:00.824Z,27.10
2018-10-16T09:45:40.902Z,27.80
2018-10-16T09:48:15.277Z,27.90
2018-10-16T09:50:48.737Z,26.53
2018-10-16T09:53:22.297Z,28.00
2018-10-16T09:55:55.845Z,27.45
2018-10-16T09:58:29.912Z,27.10
2018-10-16T10:01:09.270Z,27.70
2018-10-16T10:03:43.795Z,31.20
2018-10-16T10:06:17.247Z,27.93
2018-10-16T10:08:50.697Z,27.58
2018-10-16T10:11:30.656Z,27.00
2018-10-16T10:14:10.467Z,27.62
2018-10-16T10:16:46.091Z,27.48
2018-10-16T10:19:19.805Z,27.00
2018-10-16T10:21:53.150Z,26.50
2018-10-16T10:24:32.941Z,24.82
2018-10-16T10:27:06.789Z,25.62
2018-10-16T10:29:40.382Z,23.83
2018-10-16T10:32:13.930Z,23.25
2018-10-16T10:34:53.817Z,24.57
2018-10-16T10:37:27.449Z,24.05
2018-10-16T10:40:07.245Z,22.62
2018-10-16T10:42:47.068Z,22.65
2018-10-16T10:45:26.773Z,24.23
2018-10-16T10:48:00.451Z,22.70
2018-10-16T10:50:34.294Z,23.90
2018-10-16T10:53:13.875Z,22.52
2018-10-16T10:55:47.453Z,21.35
2018-10-16T10:58:21.040Z,23.42
2018-10-16T11:00:54.627Z,19.90
2018-10-16T11:03:28.172Z,19.98
2018-10-16T11:06:01.688Z,19.75
2018-10-16T11:08:35.149Z,19.73
2018-10-16T11:11:08.670Z,18.95
2018-10-16T11:13:48.575Z,17.02
2018-10-16T11:16:22.062Z,16.50
2018-10-16T11:18:55.410Z,17.42
2018-10-16T11:21:29.875Z,16.50
2018-10-16T11:24:04.704Z,17.77
2018-10-16T11:26:39.239Z,14.38
2018-10-16T11:29:12.724Z,14.95
2018-10-16T11:31:47.276Z,13.70
2018-10-16T11:34:21.793Z,14.30
2018-10-16T11:36:55.408Z,15.65
2018-10-16T11:39:28.937Z,14.80
2018-10-16T11:42:08.809Z,14.43
2018-10-16T11:44:43.369Z,11.93
2018-10-16T11:47:23.307Z,9.08
2018-10-16T11:49:56.826Z,9.55
2018-10-16T11:52:30.413Z,9.55
2018-10-16T11:55:06.246Z,9.88
2018-10-16T11:57:39.699Z,8.60
2018-10-16T12:00:15.962Z,8.38
2018-10-16T12:02:49.617Z,9.20
2018-10-16T12:05:29.243Z,9.43
2018-10-16T12:08:02.862Z,9.43
2018-10-16T12:10:36.363Z,10.18
2018-10-16T12:13:16.355Z,10.40
2018-10-16T12:15:56.227Z,9.05
2018-10-16T12:18:33.331Z,7.25
2018-10-16T12:21:11.280Z,7.17
2018-10-16T12:23:45.175Z,7.15
2018-10-16T12:26:25.010Z,6.15
2018-10-16T12:28:59.426Z,6.35
2018-10-16T12:31:33.719Z,5.50
2018-10-16T12:34:13.635Z,5.72
2018-10-16T12:36:53.638Z,5.00
2018-10-16T12:39:27.285Z,5.00
2018-10-16T12:42:07.086Z,5.45
2018-10-16T12:44:40.645Z,5.22
2018-10-16T12:47:15.129Z,6.33
2018-10-16T12:49:48.865Z,5.55
2018-10-16T12:52:22.538Z,6.20
2018-10-16T12:54:56.161Z,5.80
2018-10-16T12:57:32.668Z,5.45
2018-10-16T13:00:12.465Z,5.62
2018-10-16T13:02:46.025Z,6.28
2018-10-16T13:05:19.637Z,5.92
2018-10-16T13:07:54.085Z,5.72
2018-10-16T13:10:27.653Z,5.50
2018-10-16T13:13:01.934Z,6.00
2018-10-16T13:15:35.482Z,5.78
2018-10-16T13:18:15.580Z,4.97
2018-10-16T13:20:56.822Z,5.70
2018-10-16T13:23:31.427Z,4.90
2018-10-16T13:26:05.184Z,5.17
2018-10-16T13:28:38.877Z,5.17
2018-10-16T13:31:12.973Z,5.03
2018-10-16T13:33:47.679Z,4.50
2018-10-16T13:36:27.525Z,5.22
2018-10-16T13:39:08.133Z,4.75
2018-10-16T13:41:46.284Z,5.03
2018-10-16T13:44:19.774Z,4.90
2018-10-16T13:46:59.626Z,4.62
2018-10-16T13:49:33.765Z,5.17
2018-10-16T13:52:07.619Z,4.70
2018-10-16T13:54:41.060Z,5.30
2018-10-16T13:57:14.712Z,4.83
2018-10-16T13:59:48.303Z,4.87
2018-10-16T14:02:22.018Z,4.53
2018-10-16T14:05:02.136Z,4.67
2018-10-16T14:07:42.327Z,4.90
2018-10-16T14:10:16.678Z,4.70
2018-10-16T14:12:50.349Z,4.55
2018-10-16T14:15:24.915Z,4.47
2018-10-16T14:18:05.166Z,4.75
2018-10-16T14:20:38.611Z,5.20
2018-10-16T14:23:12.293Z,5.10
2018-10-16T14:25:45.652Z,5.37
2018-10-16T14:28:25.586Z,4.40
2018-10-16T14:30:59.908Z,4.92
2018-10-16T14:33:39.929Z,5.05
2018-10-16T14:36:13.296Z,5.80
2018-10-16T14:38:46.982Z,5.85
2018-10-16T14:41:26.902Z,5.58
2018-10-16T14:44:00.408Z,5.92
2018-10-16T14:46:33.799Z,5.67
2018-10-16T14:49:08.216Z,5.05
2018-10-16T14:51:42.551Z,5.70
2018-10-16T14:54:16.211Z,5.58
2018-10-16T14:56:56.218Z,6.00
2018-10-16T14:59:36.263Z,5.20
2018-10-16T15:02:16.272Z,5.42
2018-10-16T15:04:49.818Z,6.28
2018-10-16T15:07:29.855Z,5.85
2018-10-16T15:10:03.816Z,5.75
2018-10-16T15:12:37.215Z,5.55
2018-10-16T15:15:10.819Z,5.08
2018-10-16T15:17:44.349Z,5.85
2018-10-16T15:20:17.921Z,5.58
2018-10-16T15:22:51.710Z,5.65
2018-10-16T15:25:25.293Z,5.78
2018-10-16T15:28:05.340Z,5.42
2018-10-16T15:30:38.721Z,5.83
2018-10-16T15:33:18.650Z,6.85
2018-10-16T15:35:59.152Z,6.50
2018-10-16T15:38:34.045Z,6.12
2018-10-16T15:41:08.076Z,5.78
2018-10-16T15:43:41.913Z,6.10
2018-10-16T15:46:22.196Z,6.33
2018-10-16T15:49:02.380Z,5.67
2018-10-16T15:51:36.487Z,5.85
2018-10-16T15:54:16.811Z,5.70
2018-10-16T15:56:50.627Z,6.10
2018-10-16T15:59:30.828Z,6.75
2018-10-16T16:02:11.107Z,6.40
2018-10-16T16:04:45.627Z,6.53
2018-10-16T16:07:20.548Z,6.72
2018-10-16T16:10:01.114Z,6.45
2018-10-16T16:12:36.339Z,6.72
2018-10-16T16:15:16.794Z,7.97
2018-10-16T16:17:50.888Z,6.78
2018-10-16T16:20:24.886Z,7.00
2018-10-16T16:23:05.213Z,7.22
2018-10-16T16:25:39.155Z,7.22
2018-10-16T16:28:13.050Z,7.62
2018-10-16T16:30:46.919Z,7.75
2018-10-16T16:33:20.848Z,7.28
2018-10-16T16:36:01.123Z,8.18
2018-10-16T16:38:35.137Z,7.42
2018-10-16T16:41:15.429Z,7.60
2018-10-16T16:43:55.746Z,7.45
2018-10-16T16:46:32.708Z,7.33
2018-10-16T16:49:12.777Z,7.25
2018-10-16T16:51:53.026Z,7.97
2018-10-16T16:54:33.223Z,8.13
2018-10-16T16:57:07.221Z,7.80
2018-10-16T16:59:41.205Z,8.15
2018-10-16T17:02:15.098Z,7.90
2018-10-16T17:04:55.366Z,8.53
2018-10-16T17:07:29.132Z,8.40
2018-10-16T17:10:03.985Z,8.08
2018-10-16T17:12:44.270Z,8.50
2018-10-16T17:15:18.252Z,8.15
2018-10-16T17:17:53.199Z,8.40
2018-10-16T17:20:26.898Z,8.50
2018-10-16T17:23:00.758Z,8.85
2018-10-16T17:25:35.025Z,8.58
2018-10-16T17:28:08.967Z,9.33
2018-10-16T17:30:42.762Z,8.83
2018-10-16T17:33:22.972Z,9.38
2018-10-16T17:35:56.811Z,9.33
2018-10-16T17:38:30.906Z,9.33
2018-10-16T17:41:04.856Z,9.30
2018-10-16T17:43:38.781Z,8.93
2018-10-16T17:46:12.767Z,9.13
2018-10-16T17:48:46.530Z,9.08
2018-10-16T17:51:20.426Z,8.65
2018-10-16T17:53:54.403Z,8.38
2018-10-16T17:56:28.206Z,8.85
2018-10-16T17:59:08.564Z,8.70
2018-10-16T18:01:43.314Z,9.28
2018-10-16T18:04:17.881Z,9.80
2018-10-16T18:06:51.510Z,10.23
2018-10-16T18:09:24.961Z,9.00
2018-10-16T18:12:04.905Z,8.98
2018-10-16T18:14:44.887Z,9.48
2018-10-16T18:17:25.036Z,9.63
2018-10-16T18:19:58.708Z,9.90
2018-10-16T18:22:33.242Z,10.78
2018-10-16T18:25:07.246Z,10.50
2018-10-16T18:27:47.001Z,10.30
2018-10-16T18:30:26.902Z,10.20
2018-10-16T18:33:00.385Z,9.70
2018-10-16T18:35:33.953Z,10.00
2018-10-16T18:38:07.853Z,9.65
2018-10-16T18:40:47.997Z,9.67
2018-10-16T18:43:21.505Z,10.17
2018-10-16T18:45:55.324Z,10.25
2018-10-16T18:48:35.451Z,10.23
2018-10-16T18:51:09.488Z,10.80
2018-10-16T18:53:49.325Z,10.23
2018-10-16T18:56:25.880Z,10.95
2018-10-16T18:58:59.546Z,10.67
2018-10-16T19:01:33.017Z,11.03
2018-10-16T19:04:07.882Z,11.27
2018-10-16T19:06:47.722Z,11.20
2018-10-16T19:09:21.281Z,11.87
2018-10-16T19:11:54.867Z,11.12
2018-10-16T19:14:28.537Z,11.03
2018-10-16T19:17:02.084Z,10.97
2018-10-16T19:19:37.722Z,11.33
2018-10-16T19:22:17.489Z,12.13
2018-10-16T19:24:57.402Z,11.23
2018-10-16T19:27:37.372Z,11.87
2018-10-16T19:30:11.811Z,12.50
2018-10-16T19:32:45.437Z,11.23
2018-10-16T19:35:25.320Z,14.03
2018-10-16T19:37:59.739Z,11.70
2018-10-16T19:40:33.225Z,11.90
2018-10-16T19:43:07.817Z,12.10
2018-10-16T19:45:47.475Z,11.83
2018-10-16T19:48:21.657Z,12.07
2018-10-16T19:50:55.213Z,12.90
2018-10-16T19:53:34.970Z,12.13
2018-10-16T19:56:08.661Z,12.30
2018-10-16T19:58:42.200Z,12.57
2018-10-16T20:01:22.090Z,11.70
2018-10-16T20:03:55.751Z,11.83
2018-10-16T20:06:35.730Z,12.60
2018-10-16T20:09:10.320Z,13.70
2018-10-16T20:11:43.711Z,13.60
2018-10-16T20:14:17.459Z,13.97
2018-10-16T20:16:57.281Z,14.53
2018-10-16T20:19:37.320Z,15.88
2018-10-16T20:22:17.279Z,15.80
2018-10-16T20:24:50.794Z,14.33
2018-10-16T20:27:30.630Z,14.43
2018-10-16T20:30:11.169Z,14.47
2018-10-16T20:32:44.765Z,14.40
2018-10-16T20:35:18.365Z,14.37
2018-10-16T20:37:51.796Z,14.93
2018-10-16T20:40:31.664Z,14.03
2018-10-16T20:43:05.353Z,15.63
2018-10-16T20:45:45.137Z,13.63
2018-10-16T20:48:18.862Z,14.63
2018-10-16T20:50:58.751Z,14.10
2018-10-16T20:53:38.617Z,13.87
2018-10-16T20:56:13.137Z,15.03
2018-10-16T20:58:53.364Z,13.97
2018-10-16T21:01:27.128Z,14.93
2018-10-16T21:04:01.562Z,13.60
2018-10-16T21:06:35.167Z,14.27
2018-10-16T21:09:08.724Z,14.33
2018-10-16T21:11:42.405Z,15.47
2018-10-16T21:14:15.945Z,15.70
2018-10-16T21:16:49.527Z,15.75
2018-10-16T21:19:22.922Z,15.23
2018-10-16T21:21:56.672Z,15.17
2018-10-16T21:24:31.295Z,15.13
2018-10-16T21:27:11.961Z,15.17
2018-10-16T21:29:45.412Z,16.37
2018-10-16T21:32:25.312Z,16.83
2018-10-16T21:35:05.881Z,15.23
2018-10-16T21:37:45.604Z,15.53
2018-10-16T21:40:25.607Z,15.27
2018-10-16T21:43:05.800Z,15.33
2018-10-16T21:45:40.605Z,16.70
2018-10-16T21:48:14.636Z,16.20
2018-10-16T21:50:49.370Z,16.50
2018-10-16T21:53:29.488Z,15.77
2018-10-16T21:56:02.931Z,16.00
2018-10-16T21:58:37.360Z,17.27
2018-10-16T22:01:12.383Z,16.03
2018-10-16T22:03:46.023Z,16.67
2018-10-16T22:06:19.627Z,17.00
2018-10-16T22:08:53.394Z,17.20
2018-10-16T22:11:26.910Z,16.03
2018-10-16T22:14:00.422Z,17.83
2018-10-16T22:16:40.375Z,16.47
2018-10-16T22:19:14.193Z,17.93
2018-10-16T22:21:47.712Z,18.30
2018-10-16T22:24:24.624Z,17.53
2018-10-16T22:27:05.036Z,17.50
2018-10-16T22:29:39.694Z,19.17
2018-10-16T22:32:19.852Z,18.80
2018-10-16T22:35:00.047Z,19.13
2018-10-16T22:37:33.575Z,21.40
2018-10-16T22:40:08.561Z,19.43
2018-10-16T22:42:42.121Z,18.47
2018-10-16T22:45:15.646Z,19.00
2018-10-16T22:47:55.438Z,21.70
2018-10-16T22:50:29.007Z,19.73
2018-10-16T22:53:02.459Z,19.73
2018-10-16T22:55:36.083Z,23.33
2018-10-16T22:58:10.707Z,20.57
2018-10-16T23:00:44.111Z,20.17
2018-10-16T23:03:17.677Z,19.87
2018-10-16T23:05:57.507Z,21.47
2018-10-16T23:08:31.042Z,21.10
2018-10-16T23:11:04.996Z,21.87
2018-10-16T23:13:38.624Z,22.53
2018-10-16T23:16:18.431Z,22.17
2018-10-16T23:18:51.983Z,21.73
2018-10-16T23:21:25.669Z,22.67
2018-10-16T23:23:59.255Z,21.80
2018-10-16T23:26:32.827Z,21.97
2018-10-16T23:29:06.497Z,21.63
2018-10-16T23:31:40.042Z,21.83
2018-10-16T23:34:13.601Z,20.93
2018-10-16T23:36:53.593Z,21.27
2018-10-16T23:39:26.950Z,22.63
2018-10-16T23:42:00.579Z,20.80
2018-10-16T23:44:34.237Z,21.57
2018-10-16T23:47:07.975Z,19.67
2018-10-16T23:49:41.500Z,19.60
2018-10-16T23:52:14.965Z,20.00
2018-10-16T23:54:49.510Z,19.57
2018-10-16T23:57:23.250Z,21.33
2018-10-16T23:59:56.818Z,19.70
